sensor_id;sensor_type;location;lat;lon;timestamp;temperature;humidity
23083;DHT22;11709;52.420;10.538;2022-07-24T00:00:32;14.30;99.90
23083;DHT22;11709;52.420;10.538;2022-07-24T00:04:34;14.30;99.90
23083;DHT22;11709;52.420;10.538;2022-07-24T00:08:37;14.20;99.90
23083;DHT22;11709;52.420;10.538;2022-07-24T00:12:40;14.10;99.90
23083;DHT22;11709;52.420;10.538;2022-07-24T00:16:42;14.10;99.90
23083;DHT22;11709;52.420;10.538;2022-07-24T00:20:45;13.90;99.90
23083;DHT22;11709;52.420;10.538;2022-07-24T00:24:47;13.90;99.90
23083;DHT22;11709;52.420;10.538;2022-07-24T00:28:50;13.80;99.90
23083;DHT22;11709;52.420;10.538;2022-07-24T00:32:52;13.60;99.90
23083;DHT22;11709;52.420;10.538;2022-07-24T00:36:55;13.60;99.90
23083;DHT22;11709;52.420;10.538;2022-07-24T00:40:57;13.60;99.90
23083;DHT22;11709;52.420;10.538;2022-07-24T00:45:00;13.50;99.90
23083;DHT22;11709;52.420;10.538;2022-07-24T00:49:07;13.40;99.90
23083;DHT22;11709;52.420;10.538;2022-07-24T00:53:10;13.20;99.90
23083;DHT22;11709;52.420;10.538;2022-07-24T00:57:13;13.20;99.90
23083;DHT22;11709;52.420;10.538;2022-07-24T01:01:16;13.10;99.90
23083;DHT22;11709;52.420;10.538;2022-07-24T01:05:20;13.10;99.90
23083;DHT22;11709;52.420;10.538;2022-07-24T01:09:22;13.10;99.90
23083;DHT22;11709;52.420;10.538;2022-07-24T01:13:25;13.00;99.90
23083;DHT22;11709;52.420;10.538;2022-07-24T01:17:32;12.90;99.90
23083;DHT22;11709;52.420;10.538;2022-07-24T01:21:35;12.90;99.90
23083;DHT22;11709;52.420;10.538;2022-07-24T01:25:38;12.70;99.90
23083;DHT22;11709;52.420;10.538;2022-07-24T01:29:40;12.60;99.90
23083;DHT22;11709;52.420;10.538;2022-07-24T01:33:43;12.70;99.90
23083;DHT22;11709;52.420;10.538;2022-07-24T01:37:45;12.70;99.90
23083;DHT22;11709;52.420;10.538;2022-07-24T01:41:48;12.70;99.90
23083;DHT22;11709;52.420;10.538;2022-07-24T01:45:50;12.50;99.90
23083;DHT22;11709;52.420;10.538;2022-07-24T01:49:53;12.50;99.90
23083;DHT22;11709;52.420;10.538;2022-07-24T01:53:55;12.50;99.90
23083;DHT22;11709;52.420;10.538;2022-07-24T01:57:58;12.50;99.90
23083;DHT22;11709;52.420;10.538;2022-07-24T02:02:00;12.40;99.90
23083;DHT22;11709;52.420;10.538;2022-07-24T02:06:03;12.40;99.90
23083;DHT22;11709;52.420;10.538;2022-07-24T02:10:06;12.40;99.90
23083;DHT22;11709;52.420;10.538;2022-07-24T02:14:09;12.50;99.90
23083;DHT22;11709;52.420;10.538;2022-07-24T02:18:12;12.40;99.90
23083;DHT22;11709;52.420;10.538;2022-07-24T02:22:14;12.30;99.90
23083;DHT22;11709;52.420;10.538;2022-07-24T02:26:17;12.30;99.90
23083;DHT22;11709;52.420;10.538;2022-07-24T02:30:21;12.20;99.90
23083;DHT22;11709;52.420;10.538;2022-07-24T02:34:25;12.00;99.90
23083;DHT22;11709;52.420;10.538;2022-07-24T02:38:28;12.00;99.90
23083;DHT22;11709;52.420;10.538;2022-07-24T02:42:30;12.10;99.90
23083;DHT22;11709;52.420;10.538;2022-07-24T02:46:33;12.10;99.90
23083;DHT22;11709;52.420;10.538;2022-07-24T02:50:36;12.10;99.90
23083;DHT22;11709;52.420;10.538;2022-07-24T02:54:40;12.00;99.90
23083;DHT22;11709;52.420;10.538;2022-07-24T02:58:43;12.00;99.90
23083;DHT22;11709;52.420;10.538;2022-07-24T03:02:45;12.10;99.90
23083;DHT22;11709;52.420;10.538;2022-07-24T03:06:48;12.00;99.90
23083;DHT22;11709;52.420;10.538;2022-07-24T03:10:50;12.00;99.90
23083;DHT22;11709;52.420;10.538;2022-07-24T03:14:53;11.90;99.90
23083;DHT22;11709;52.420;10.538;2022-07-24T03:18:56;12.00;99.90
23083;DHT22;11709;52.420;10.538;2022-07-24T03:22:59;11.90;99.90
23083;DHT22;11709;52.420;10.538;2022-07-24T03:27:02;11.90;99.90
23083;DHT22;11709;52.420;10.538;2022-07-24T03:31:04;11.90;99.90
23083;DHT22;11709;52.420;10.538;2022-07-24T03:35:07;11.90;99.90
23083;DHT22;11709;52.420;10.538;2022-07-24T03:39:10;12.00;99.90
23083;DHT22;11709;52.420;10.538;2022-07-24T03:43:12;12.00;99.90
23083;DHT22;11709;52.420;10.538;2022-07-24T03:47:15;12.00;99.90
23083;DHT22;11709;52.420;10.538;2022-07-24T03:51:17;12.00;99.90
23083;DHT22;11709;52.420;10.538;2022-07-24T03:55:20;11.90;99.90
23083;DHT22;11709;52.420;10.538;2022-07-24T03:59:22;11.80;99.90
23083;DHT22;11709;52.420;10.538;2022-07-24T04:03:25;11.80;99.90
23083;DHT22;11709;52.420;10.538;2022-07-24T04:07:28;11.80;99.90
23083;DHT22;11709;52.420;10.538;2022-07-24T04:11:30;11.90;99.90
23083;DHT22;11709;52.420;10.538;2022-07-24T04:15:33;11.90;99.90
23083;DHT22;11709;52.420;10.538;2022-07-24T04:19:35;11.70;99.90
23083;DHT22;11709;52.420;10.538;2022-07-24T04:23:38;11.80;99.90
23083;DHT22;11709;52.420;10.538;2022-07-24T04:27:40;11.90;99.90
23083;DHT22;11709;52.420;10.538;2022-07-24T04:31:45;12.00;99.90
23083;DHT22;11709;52.420;10.538;2022-07-24T04:35:47;12.10;99.90
23083;DHT22;11709;52.420;10.538;2022-07-24T04:39:50;12.20;99.90
23083;DHT22;11709;52.420;10.538;2022-07-24T04:43:52;12.30;99.90
23083;DHT22;11709;52.420;10.538;2022-07-24T04:47:55;12.50;99.90
23083;DHT22;11709;52.420;10.538;2022-07-24T04:51:57;12.60;99.90
23083;DHT22;11709;52.420;10.538;2022-07-24T04:56:00;12.80;99.90
23083;DHT22;11709;52.420;10.538;2022-07-24T05:00:04;13.00;99.90
23083;DHT22;11709;52.420;10.538;2022-07-24T05:04:06;13.20;99.90
23083;DHT22;11709;52.420;10.538;2022-07-24T05:08:09;13.40;99.90
23083;DHT22;11709;52.420;10.538;2022-07-24T05:12:12;13.60;99.90
23083;DHT22;11709;52.420;10.538;2022-07-24T05:16:14;13.80;99.90
23083;DHT22;11709;52.420;10.538;2022-07-24T05:20:17;14.00;99.90
23083;DHT22;11709;52.420;10.538;2022-07-24T05:24:19;14.20;99.90
23083;DHT22;11709;52.420;10.538;2022-07-24T05:28:22;14.50;99.90
23083;DHT22;11709;52.420;10.538;2022-07-24T05:32:24;14.70;99.90
23083;DHT22;11709;52.420;10.538;2022-07-24T05:36:27;14.90;99.90
23083;DHT22;11709;52.420;10.538;2022-07-24T05:40:29;15.10;99.90
23083;DHT22;11709;52.420;10.538;2022-07-24T05:44:32;15.30;99.90
23083;DHT22;11709;52.420;10.538;2022-07-24T05:48:34;15.60;99.90
23083;DHT22;11709;52.420;10.538;2022-07-24T05:52:37;15.80;99.90
23083;DHT22;11709;52.420;10.538;2022-07-24T05:56:40;16.00;99.90
23083;DHT22;11709;52.420;10.538;2022-07-24T06:00:43;16.30;99.90
23083;DHT22;11709;52.420;10.538;2022-07-24T06:04:45;16.50;99.90
23083;DHT22;11709;52.420;10.538;2022-07-24T06:08:48;16.70;99.90
23083;DHT22;11709;52.420;10.538;2022-07-24T06:12:50;17.00;99.90
23083;DHT22;11709;52.420;10.538;2022-07-24T06:16:53;17.20;99.90
23083;DHT22;11709;52.420;10.538;2022-07-24T06:20:55;17.40;99.90
23083;DHT22;11709;52.420;10.538;2022-07-24T06:24:58;17.60;99.90
23083;DHT22;11709;52.420;10.538;2022-07-24T06:29:00;17.80;99.90
23083;DHT22;11709;52.420;10.538;2022-07-24T06:33:03;17.90;99.90
23083;DHT22;11709;52.420;10.538;2022-07-24T06:37:05;18.00;99.90
23083;DHT22;11709;52.420;10.538;2022-07-24T06:41:08;18.30;99.90
23083;DHT22;11709;52.420;10.538;2022-07-24T06:45:11;18.40;99.90
23083;DHT22;11709;52.420;10.538;2022-07-24T06:49:13;18.60;99.90
23083;DHT22;11709;52.420;10.538;2022-07-24T06:53:16;18.70;99.90
23083;DHT22;11709;52.420;10.538;2022-07-24T06:57:18;18.80;99.90
23083;DHT22;11709;52.420;10.538;2022-07-24T07:01:21;19.10;99.90
23083;DHT22;11709;52.420;10.538;2022-07-24T07:05:25;19.30;99.90
23083;DHT22;11709;52.420;10.538;2022-07-24T07:09:27;19.50;99.90
23083;DHT22;11709;52.420;10.538;2022-07-24T07:13:30;19.70;99.90
23083;DHT22;11709;52.420;10.538;2022-07-24T07:17:32;19.90;99.90
23083;DHT22;11709;52.420;10.538;2022-07-24T07:21:35;20.10;99.90
23083;DHT22;11709;52.420;10.538;2022-07-24T07:25:38;20.30;99.90
23083;DHT22;11709;52.420;10.538;2022-07-24T07:29:41;20.40;99.90
23083;DHT22;11709;52.420;10.538;2022-07-24T07:33:43;20.50;99.90
23083;DHT22;11709;52.420;10.538;2022-07-24T07:37:46;20.60;99.90
23083;DHT22;11709;52.420;10.538;2022-07-24T07:41:48;20.70;99.90
23083;DHT22;11709;52.420;10.538;2022-07-24T07:45:57;20.90;99.90
23083;DHT22;11709;52.420;10.538;2022-07-24T07:50:04;21.10;99.90
23083;DHT22;11709;52.420;10.538;2022-07-24T07:54:06;21.20;99.90
23083;DHT22;11709;52.420;10.538;2022-07-24T07:58:09;21.30;99.90
23083;DHT22;11709;52.420;10.538;2022-07-24T08:02:11;21.50;99.90
23083;DHT22;11709;52.420;10.538;2022-07-24T08:06:14;21.70;99.90
23083;DHT22;11709;52.420;10.538;2022-07-24T08:10:17;21.80;99.90
23083;DHT22;11709;52.420;10.538;2022-07-24T08:14:19;22.00;99.90
23083;DHT22;11709;52.420;10.538;2022-07-24T08:18:22;22.20;99.90
23083;DHT22;11709;52.420;10.538;2022-07-24T08:22:24;22.20;99.90
23083;DHT22;11709;52.420;10.538;2022-07-24T08:26:27;22.40;99.90
23083;DHT22;11709;52.420;10.538;2022-07-24T08:30:31;22.60;99.90
23083;DHT22;11709;52.420;10.538;2022-07-24T08:34:33;22.90;99.90
23083;DHT22;11709;52.420;10.538;2022-07-24T08:38:36;23.00;99.90
23083;DHT22;11709;52.420;10.538;2022-07-24T08:42:39;23.10;99.90
23083;DHT22;11709;52.420;10.538;2022-07-24T08:46:42;23.30;99.90
23083;DHT22;11709;52.420;10.538;2022-07-24T08:50:44;23.50;99.90
23083;DHT22;11709;52.420;10.538;2022-07-24T08:54:47;23.60;99.90
23083;DHT22;11709;52.420;10.538;2022-07-24T08:58:50;23.80;99.90
23083;DHT22;11709;52.420;10.538;2022-07-24T09:02:52;23.90;99.90
23083;DHT22;11709;52.420;10.538;2022-07-24T09:06:58;24.00;99.90
23083;DHT22;11709;52.420;10.538;2022-07-24T09:11:03;24.30;99.90
23083;DHT22;11709;52.420;10.538;2022-07-24T09:15:20;24.60;99.90
23083;DHT22;11709;52.420;10.538;2022-07-24T09:19:24;24.70;99.90
23083;DHT22;11709;52.420;10.538;2022-07-24T09:23:27;25.00;99.90
23083;DHT22;11709;52.420;10.538;2022-07-24T09:27:30;25.10;99.90
23083;DHT22;11709;52.420;10.538;2022-07-24T09:31:48;25.10;99.90
23083;DHT22;11709;52.420;10.538;2022-07-24T09:35:40;25.10;99.90
23083;DHT22;11709;52.420;10.538;2022-07-24T09:39:43;25.20;99.90
23083;DHT22;11709;52.420;10.538;2022-07-24T09:43:55;25.40;99.90
23083;DHT22;11709;52.420;10.538;2022-07-24T09:47:52;25.70;99.90
23083;DHT22;11709;52.420;10.538;2022-07-24T09:52:13;26.00;99.90
23083;DHT22;11709;52.420;10.538;2022-07-24T09:56:17;26.20;99.90
23083;DHT22;11709;52.420;10.538;2022-07-24T10:00:20;26.60;99.90
23083;DHT22;11709;52.420;10.538;2022-07-24T10:04:22;26.40;99.90
23083;DHT22;11709;52.420;10.538;2022-07-24T10:08:26;26.70;99.90
23083;DHT22;11709;52.420;10.538;2022-07-24T10:12:31;27.10;99.90
23083;DHT22;11709;52.420;10.538;2022-07-24T10:16:35;27.60;99.90
23083;DHT22;11709;52.420;10.538;2022-07-24T10:20:43;27.90;99.90
23083;DHT22;11709;52.420;10.538;2022-07-24T10:24:58;28.30;99.90
23083;DHT22;11709;52.420;10.538;2022-07-24T10:29:15;28.60;99.90
23083;DHT22;11709;52.420;10.538;2022-07-24T10:33:18;28.90;98.20
23083;DHT22;11709;52.420;10.538;2022-07-24T10:37:30;29.00;96.10
23083;DHT22;11709;52.420;10.538;2022-07-24T10:41:31;29.10;94.90
23083;DHT22;11709;52.420;10.538;2022-07-24T10:49:49;29.90;91.80
23083;DHT22;11709;52.420;10.538;2022-07-24T10:53:53;30.20;90.60
23083;DHT22;11709;52.420;10.538;2022-07-24T10:58:11;30.30;89.30
23083;DHT22;11709;52.420;10.538;2022-07-24T11:02:28;30.60;86.30
23083;DHT22;11709;52.420;10.538;2022-07-24T11:06:42;30.30;85.70
23083;DHT22;11709;52.420;10.538;2022-07-24T11:10:47;30.90;83.20
23083;DHT22;11709;52.420;10.538;2022-07-24T11:14:50;31.30;79.50
23083;DHT22;11709;52.420;10.538;2022-07-24T11:23:00;31.70;76.30
23083;DHT22;11709;52.420;10.538;2022-07-24T11:27:06;31.80;73.80
23083;DHT22;11709;52.420;10.538;2022-07-24T11:31:10;32.70;71.90
23083;DHT22;11709;52.420;10.538;2022-07-24T11:35:13;32.50;71.30
23083;DHT22;11709;52.420;10.538;2022-07-24T11:39:17;32.10;70.30
23083;DHT22;11709;52.420;10.538;2022-07-24T11:43:21;32.90;67.90
23083;DHT22;11709;52.420;10.538;2022-07-24T11:47:25;33.00;66.00
23083;DHT22;11709;52.420;10.538;2022-07-24T11:51:29;32.90;62.40
23083;DHT22;11709;52.420;10.538;2022-07-24T11:55:31;33.20;60.80
23083;DHT22;11709;52.420;10.538;2022-07-24T11:59:34;33.50;60.00
23083;DHT22;11709;52.420;10.538;2022-07-24T12:03:36;33.60;59.40
23083;DHT22;11709;52.420;10.538;2022-07-24T12:07:40;33.50;60.10
23083;DHT22;11709;52.420;10.538;2022-07-24T12:11:43;34.00;59.70
23083;DHT22;11709;52.420;10.538;2022-07-24T12:15:46;34.50;58.70
23083;DHT22;11709;52.420;10.538;2022-07-24T12:19:53;33.80;56.60
23083;DHT22;11709;52.420;10.538;2022-07-24T12:23:56;33.90;57.60
23083;DHT22;11709;52.420;10.538;2022-07-24T12:28:04;34.90;57.00
23083;DHT22;11709;52.420;10.538;2022-07-24T12:32:15;34.40;55.00
23083;DHT22;11709;52.420;10.538;2022-07-24T12:36:18;34.50;54.90
23083;DHT22;11709;52.420;10.538;2022-07-24T12:40:26;35.20;53.90
23083;DHT22;11709;52.420;10.538;2022-07-24T12:44:40;36.00;53.10
23083;DHT22;11709;52.420;10.538;2022-07-24T12:49:01;36.20;51.00
23083;DHT22;11709;52.420;10.538;2022-07-24T12:53:06;35.90;51.50
23083;DHT22;11709;52.420;10.538;2022-07-24T12:57:11;36.10;51.00
23083;DHT22;11709;52.420;10.538;2022-07-24T13:01:14;36.20;52.00
23083;DHT22;11709;52.420;10.538;2022-07-24T13:05:37;36.40;50.30
23083;DHT22;11709;52.420;10.538;2022-07-24T13:09:39;36.10;50.50
23083;DHT22;11709;52.420;10.538;2022-07-24T13:13:42;36.10;49.90
23083;DHT22;11709;52.420;10.538;2022-07-24T13:17:44;36.70;49.90
23083;DHT22;11709;52.420;10.538;2022-07-24T13:21:48;36.30;49.70
23083;DHT22;11709;52.420;10.538;2022-07-24T13:25:50;36.00;49.10
23083;DHT22;11709;52.420;10.538;2022-07-24T13:29:53;36.20;50.10
23083;DHT22;11709;52.420;10.538;2022-07-24T13:33:56;36.20;47.40
23083;DHT22;11709;52.420;10.538;2022-07-24T13:37:59;35.90;47.50
23083;DHT22;11709;52.420;10.538;2022-07-24T13:42:01;35.60;47.50
23083;DHT22;11709;52.420;10.538;2022-07-24T13:46:04;35.70;47.60
23083;DHT22;11709;52.420;10.538;2022-07-24T13:50:07;35.90;48.30
23083;DHT22;11709;52.420;10.538;2022-07-24T13:54:10;35.90;46.90
23083;DHT22;11709;52.420;10.538;2022-07-24T13:58:13;35.90;46.90
23083;DHT22;11709;52.420;10.538;2022-07-24T14:02:15;36.30;48.00
23083;DHT22;11709;52.420;10.538;2022-07-24T14:06:18;36.40;47.40
23083;DHT22;11709;52.420;10.538;2022-07-24T14:10:21;37.00;46.50
23083;DHT22;11709;52.420;10.538;2022-07-24T14:14:24;36.80;46.70
23083;DHT22;11709;52.420;10.538;2022-07-24T14:18:26;36.50;47.20
23083;DHT22;11709;52.420;10.538;2022-07-24T14:22:29;36.80;46.00
23083;DHT22;11709;52.420;10.538;2022-07-24T14:26:31;35.70;46.50
23083;DHT22;11709;52.420;10.538;2022-07-24T14:30:34;35.20;46.90
23083;DHT22;11709;52.420;10.538;2022-07-24T14:34:37;34.80;46.30
23083;DHT22;11709;52.420;10.538;2022-07-24T14:38:39;34.80;47.00
23083;DHT22;11709;52.420;10.538;2022-07-24T14:42:42;34.90;48.30
23083;DHT22;11709;52.420;10.538;2022-07-24T14:46:44;35.60;46.30
23083;DHT22;11709;52.420;10.538;2022-07-24T14:50:47;35.90;46.50
23083;DHT22;11709;52.420;10.538;2022-07-24T14:54:50;35.80;46.20
23083;DHT22;11709;52.420;10.538;2022-07-24T14:58:52;35.40;46.90
23083;DHT22;11709;52.420;10.538;2022-07-24T15:02:55;35.60;47.10
23083;DHT22;11709;52.420;10.538;2022-07-24T15:06:57;35.90;46.50
23083;DHT22;11709;52.420;10.538;2022-07-24T15:11:00;36.00;47.00
23083;DHT22;11709;52.420;10.538;2022-07-24T15:15:03;36.10;47.10
23083;DHT22;11709;52.420;10.538;2022-07-24T15:19:05;36.20;47.90
23083;DHT22;11709;52.420;10.538;2022-07-24T15:23:08;36.00;48.20
23083;DHT22;11709;52.420;10.538;2022-07-24T15:27:11;35.90;47.80
23083;DHT22;11709;52.420;10.538;2022-07-24T15:31:13;35.70;47.30
23083;DHT22;11709;52.420;10.538;2022-07-24T15:35:17;35.50;48.30
23083;DHT22;11709;52.420;10.538;2022-07-24T15:39:20;34.80;48.70
23083;DHT22;11709;52.420;10.538;2022-07-24T15:43:22;34.60;49.20
23083;DHT22;11709;52.420;10.538;2022-07-24T15:47:25;34.50;49.20
23083;DHT22;11709;52.420;10.538;2022-07-24T15:51:28;34.20;50.30
23083;DHT22;11709;52.420;10.538;2022-07-24T15:55:30;34.00;50.70
23083;DHT22;11709;52.420;10.538;2022-07-24T15:59:33;34.20;49.90
23083;DHT22;11709;52.420;10.538;2022-07-24T16:03:35;34.00;51.10
23083;DHT22;11709;52.420;10.538;2022-07-24T16:07:38;33.90;50.70
23083;DHT22;11709;52.420;10.538;2022-07-24T16:11:41;33.60;51.20
23083;DHT22;11709;52.420;10.538;2022-07-24T16:15:43;33.20;51.10
23083;DHT22;11709;52.420;10.538;2022-07-24T16:19:46;33.10;51.50
23083;DHT22;11709;52.420;10.538;2022-07-24T16:23:49;33.20;52.40
23083;DHT22;11709;52.420;10.538;2022-07-24T16:27:51;33.10;51.40
23083;DHT22;11709;52.420;10.538;2022-07-24T16:31:54;33.10;51.90
23083;DHT22;11709;52.420;10.538;2022-07-24T16:35:56;32.80;53.40
23083;DHT22;11709;52.420;10.538;2022-07-24T16:39:59;32.50;54.00
23083;DHT22;11709;52.420;10.538;2022-07-24T16:44:02;32.50;54.30
23083;DHT22;11709;52.420;10.538;2022-07-24T16:48:05;32.40;54.20
23083;DHT22;11709;52.420;10.538;2022-07-24T16:52:07;32.40;54.10
23083;DHT22;11709;52.420;10.538;2022-07-24T16:56:12;32.20;54.50
23083;DHT22;11709;52.420;10.538;2022-07-24T17:00:15;32.10;55.00
23083;DHT22;11709;52.420;10.538;2022-07-24T17:04:17;32.00;54.90
23083;DHT22;11709;52.420;10.538;2022-07-24T17:08:20;31.80;55.20
23083;DHT22;11709;52.420;10.538;2022-07-24T17:12:22;31.60;55.80
23083;DHT22;11709;52.420;10.538;2022-07-24T17:16:25;31.50;56.20
23083;DHT22;11709;52.420;10.538;2022-07-24T17:20:35;31.30;56.50
23083;DHT22;11709;52.420;10.538;2022-07-24T17:24:36;31.20;57.00
23083;DHT22;11709;52.420;10.538;2022-07-24T17:28:39;31.00;57.00
23083;DHT22;11709;52.420;10.538;2022-07-24T17:32:43;31.00;57.50
23083;DHT22;11709;52.420;10.538;2022-07-24T17:36:45;30.90;57.40
23083;DHT22;11709;52.420;10.538;2022-07-24T17:40:49;30.80;58.20
23083;DHT22;11709;52.420;10.538;2022-07-24T17:44:52;30.70;58.00
23083;DHT22;11709;52.420;10.538;2022-07-24T17:48:55;30.60;57.50
23083;DHT22;11709;52.420;10.538;2022-07-24T17:52:57;30.60;58.10
23083;DHT22;11709;52.420;10.538;2022-07-24T17:57:00;30.50;58.00
23083;DHT22;11709;52.420;10.538;2022-07-24T18:01:03;30.50;58.80
23083;DHT22;11709;52.420;10.538;2022-07-24T18:05:06;30.40;58.30
23083;DHT22;11709;52.420;10.538;2022-07-24T18:09:09;30.30;59.00
23083;DHT22;11709;52.420;10.538;2022-07-24T18:13:12;30.20;59.30
23083;DHT22;11709;52.420;10.538;2022-07-24T18:17:14;30.20;58.90
23083;DHT22;11709;52.420;10.538;2022-07-24T18:21:17;30.10;59.30
23083;DHT22;11709;52.420;10.538;2022-07-24T18:25:19;30.10;59.60
23083;DHT22;11709;52.420;10.538;2022-07-24T18:29:22;30.00;59.60
23083;DHT22;11709;52.420;10.538;2022-07-24T18:33:25;30.00;62.70
23083;DHT22;11709;52.420;10.538;2022-07-24T18:37:27;29.80;60.90
23083;DHT22;11709;52.420;10.538;2022-07-24T18:41:30;29.60;65.90
23083;DHT22;11709;52.420;10.538;2022-07-24T18:45:32;29.40;66.90
23083;DHT22;11709;52.420;10.538;2022-07-24T18:49:35;29.10;69.50
23083;DHT22;11709;52.420;10.538;2022-07-24T18:53:37;28.90;68.30
23083;DHT22;11709;52.420;10.538;2022-07-24T18:57:40;28.70;68.10
23083;DHT22;11709;52.420;10.538;2022-07-24T19:01:43;28.40;70.80
23083;DHT22;11709;52.420;10.538;2022-07-24T19:05:45;28.20;77.50
23083;DHT22;11709;52.420;10.538;2022-07-24T19:09:48;28.00;78.10
23083;DHT22;11709;52.420;10.538;2022-07-24T19:13:50;27.90;78.90
23083;DHT22;11709;52.420;10.538;2022-07-24T19:17:53;27.60;77.80
23083;DHT22;11709;52.420;10.538;2022-07-24T19:21:55;27.40;82.10
23083;DHT22;11709;52.420;10.538;2022-07-24T19:25:58;27.20;86.00
23083;DHT22;11709;52.420;10.538;2022-07-24T19:30:02;26.90;90.20
23083;DHT22;11709;52.420;10.538;2022-07-24T19:34:05;26.70;91.30
23083;DHT22;11709;52.420;10.538;2022-07-24T19:38:08;26.50;91.50
23083;DHT22;11709;52.420;10.538;2022-07-24T19:42:10;26.30;90.60
23083;DHT22;11709;52.420;10.538;2022-07-24T19:46:13;26.20;90.50
23083;DHT22;11709;52.420;10.538;2022-07-24T19:50:15;26.10;90.30
23083;DHT22;11709;52.420;10.538;2022-07-24T19:54:18;25.90;90.90
23083;DHT22;11709;52.420;10.538;2022-07-24T19:58:22;25.70;91.90
23083;DHT22;11709;52.420;10.538;2022-07-24T20:02:24;25.50;94.20
23083;DHT22;11709;52.420;10.538;2022-07-24T20:06:27;25.40;96.50
23083;DHT22;11709;52.420;10.538;2022-07-24T20:10:30;25.30;97.10
23083;DHT22;11709;52.420;10.538;2022-07-24T20:14:32;25.20;98.40
23083;DHT22;11709;52.420;10.538;2022-07-24T20:18:35;24.90;99.70
23083;DHT22;11709;52.420;10.538;2022-07-24T20:22:37;24.90;99.90
23083;DHT22;11709;52.420;10.538;2022-07-24T20:26:40;24.80;99.90
23083;DHT22;11709;52.420;10.538;2022-07-24T20:30:42;24.70;99.90
23083;DHT22;11709;52.420;10.538;2022-07-24T20:34:45;24.70;99.90
23083;DHT22;11709;52.420;10.538;2022-07-24T20:38:47;24.60;99.90
23083;DHT22;11709;52.420;10.538;2022-07-24T20:42:50;24.50;99.90
23083;DHT22;11709;52.420;10.538;2022-07-24T20:46:53;24.40;99.90
23083;DHT22;11709;52.420;10.538;2022-07-24T20:50:55;24.30;99.90
23083;DHT22;11709;52.420;10.538;2022-07-24T20:54:58;24.20;99.90
23083;DHT22;11709;52.420;10.538;2022-07-24T20:59:00;24.10;99.90
23083;DHT22;11709;52.420;10.538;2022-07-24T21:03:03;24.00;99.90
23083;DHT22;11709;52.420;10.538;2022-07-24T21:07:07;23.90;99.90
23083;DHT22;11709;52.420;10.538;2022-07-24T21:11:10;23.90;99.90
23083;DHT22;11709;52.420;10.538;2022-07-24T21:15:12;23.70;99.90
23083;DHT22;11709;52.420;10.538;2022-07-24T21:19:15;23.60;99.90
23083;DHT22;11709;52.420;10.538;2022-07-24T21:23:18;23.40;99.90
23083;DHT22;11709;52.420;10.538;2022-07-24T21:27:21;23.30;99.90
23083;DHT22;11709;52.420;10.538;2022-07-24T21:31:23;23.20;99.90
23083;DHT22;11709;52.420;10.538;2022-07-24T21:35:26;23.20;99.90
23083;DHT22;11709;52.420;10.538;2022-07-24T21:39:28;23.20;99.90
23083;DHT22;11709;52.420;10.538;2022-07-24T21:43:31;23.30;99.90
23083;DHT22;11709;52.420;10.538;2022-07-24T21:47:33;23.20;99.90
23083;DHT22;11709;52.420;10.538;2022-07-24T21:51:36;23.20;99.90
23083;DHT22;11709;52.420;10.538;2022-07-24T21:55:39;23.30;99.90
23083;DHT22;11709;52.420;10.538;2022-07-24T21:59:41;23.20;99.90
23083;DHT22;11709;52.420;10.538;2022-07-24T22:03:44;23.10;99.90
23083;DHT22;11709;52.420;10.538;2022-07-24T22:07:47;23.10;99.90
23083;DHT22;11709;52.420;10.538;2022-07-24T22:11:50;23.00;99.90
23083;DHT22;11709;52.420;10.538;2022-07-24T22:15:54;22.90;99.90
23083;DHT22;11709;52.420;10.538;2022-07-24T22:19:58;22.90;99.90
23083;DHT22;11709;52.420;10.538;2022-07-24T22:24:00;23.00;99.90
23083;DHT22;11709;52.420;10.538;2022-07-24T22:28:03;22.90;99.90
23083;DHT22;11709;52.420;10.538;2022-07-24T22:32:06;22.90;99.90
23083;DHT22;11709;52.420;10.538;2022-07-24T22:36:10;22.90;99.90
23083;DHT22;11709;52.420;10.538;2022-07-24T22:40:14;22.80;99.90
23083;DHT22;11709;52.420;10.538;2022-07-24T22:44:17;22.80;99.90
23083;DHT22;11709;52.420;10.538;2022-07-24T22:48:19;22.90;99.90
23083;DHT22;11709;52.420;10.538;2022-07-24T22:52:22;22.80;99.90
23083;DHT22;11709;52.420;10.538;2022-07-24T22:56:27;22.70;99.90
23083;DHT22;11709;52.420;10.538;2022-07-24T23:00:29;22.60;99.90
23083;DHT22;11709;52.420;10.538;2022-07-24T23:04:32;22.60;99.90
23083;DHT22;11709;52.420;10.538;2022-07-24T23:08:34;22.60;99.90
23083;DHT22;11709;52.420;10.538;2022-07-24T23:12:37;22.50;99.90
23083;DHT22;11709;52.420;10.538;2022-07-24T23:16:39;22.50;99.90
23083;DHT22;11709;52.420;10.538;2022-07-24T23:20:42;22.50;99.90
23083;DHT22;11709;52.420;10.538;2022-07-24T23:24:44;22.40;99.90
23083;DHT22;11709;52.420;10.538;2022-07-24T23:28:47;22.40;99.90
23083;DHT22;11709;52.420;10.538;2022-07-24T23:32:49;22.30;99.90
23083;DHT22;11709;52.420;10.538;2022-07-24T23:36:52;22.30;99.90
23083;DHT22;11709;52.420;10.538;2022-07-24T23:40:55;22.20;99.90
23083;DHT22;11709;52.420;10.538;2022-07-24T23:44:57;22.00;99.90
23083;DHT22;11709;52.420;10.538;2022-07-24T23:49:00;21.90;99.90
23083;DHT22;11709;52.420;10.538;2022-07-24T23:53:03;21.80;99.90
23083;DHT22;11709;52.420;10.538;2022-07-24T23:57:05;21.70;99.90
